Airport ID:K65S
Update Time (UTC):20 AUG 19 21:26
Wind Speed (Knots):3
Wind Direction (Magnetic):190
Temperature (°C):30
Dew Point (°C):7
Humidity (%):23
Altimeter (inHg):29.98
Density Altitude (Feet):4500
Visibility (Miles):10
Clouds (Hundreds of feet):CLR
Present Weather:NO PRECIPITATION
METAR:METAR K65S 202125Z AUTO 25004KT 10SM CLR 30/07 A2998 RMK AO2

The data displayed is for advisory purposes only and is not to be used for flight planning or operations.

This page is not automatically refreshed. Reload the page to see current data.